sensor_id;sensor_type;location;lat;lon;timestamp;pressure;altitude;pressure_sealevel;temperature;humidity
7264;BME280;3673;52.480;13.348;2023-04-08T00:01:58;101636.34;;;11.58;60.88
7264;BME280;3673;52.480;13.348;2023-04-08T00:04:25;101631.13;;;11.60;60.70
7264;BME280;3673;52.480;13.348;2023-04-08T00:06:52;101630.28;;;11.65;60.44
7264;BME280;3673;52.480;13.348;2023-04-08T00:09:19;101630.28;;;11.65;60.44
7264;BME280;3673;52.480;13.348;2023-04-08T00:11:47;101627.69;;;11.64;60.30
7264;BME280;3673;52.480;13.348;2023-04-08T00:14:17;101633.88;;;11.70;60.07
7264;BME280;3673;52.480;13.348;2023-04-08T00:16:45;101632.91;;;11.61;60.04
7264;BME280;3673;52.480;13.348;2023-04-08T00:19:12;101636.34;;;11.57;60.70
7264;BME280;3673;52.480;13.348;2023-04-08T00:21:39;101635.44;;;11.53;60.46
7264;BME280;3673;52.480;13.348;2023-04-08T00:24:06;101638.97;;;11.58;60.50
7264;BME280;3673;52.480;13.348;2023-04-08T00:26:32;101627.53;;;11.52;60.55
7264;BME280;3673;52.480;13.348;2023-04-08T00:29:00;101632.69;;;11.41;61.45
7264;BME280;3673;52.480;13.348;2023-04-08T00:31:26;101637.09;;;11.44;61.02
7264;BME280;3673;52.480;13.348;2023-04-08T00:33:54;101639.75;;;11.47;60.90
7264;BME280;3673;52.480;13.348;2023-04-08T00:36:21;101632.00;;;11.60;60.63
7264;BME280;3673;52.480;13.348;2023-04-08T00:38:48;101631.53;;;11.13;61.63
7264;BME280;3673;52.480;13.348;2023-04-08T00:41:15;101637.97;;;11.44;61.42
7264;BME280;3673;52.480;13.348;2023-04-08T00:43:41;101638.97;;;11.58;61.42
7264;BME280;3673;52.480;13.348;2023-04-08T00:46:08;101637.94;;;11.43;60.98
7264;BME280;3673;52.480;13.348;2023-04-08T00:48:36;101644.03;;;11.42;61.06
7264;BME280;3673;52.480;13.348;2023-04-08T00:51:04;101642.38;;;11.47;61.14
7264;BME280;3673;52.480;13.348;2023-04-08T00:53:31;101638.84;;;11.45;61.29
7264;BME280;3673;52.480;13.348;2023-04-08T00:55:58;101632.78;;;11.47;61.27
7264;BME280;3673;52.480;13.348;2023-04-08T00:58:27;101641.28;;;11.28;61.44
7264;BME280;3673;52.480;13.348;2023-04-08T01:01:02;101631.69;;;11.28;61.43
7264;BME280;3673;52.480;13.348;2023-04-08T01:03:38;101628.94;;;11.16;61.66
7264;BME280;3673;52.480;13.348;2023-04-08T01:06:14;101631.19;;;10.83;62.86
7264;BME280;3673;52.480;13.348;2023-04-08T01:08:45;101634.78;;;10.93;62.42
7264;BME280;3673;52.480;13.348;2023-04-08T01:11:13;101638.78;;;11.37;61.58
7264;BME280;3673;52.480;13.348;2023-04-08T01:13:42;101641.13;;;11.14;62.00
7264;BME280;3673;52.480;13.348;2023-04-08T01:16:13;101643.00;;;11.23;61.94
7264;BME280;3673;52.480;13.348;2023-04-08T01:18:43;101635.31;;;11.41;61.15
7264;BME280;3673;52.480;13.348;2023-04-08T01:21:14;101640.56;;;11.43;61.55
7264;BME280;3673;52.480;13.348;2023-04-08T01:23:53;101638.06;;;11.55;61.31
7264;BME280;3673;52.480;13.348;2023-04-08T01:26:26;101637.97;;;11.46;61.74
7264;BME280;3673;52.480;13.348;2023-04-08T01:28:59;101650.06;;;11.31;61.79
7264;BME280;3673;52.480;13.348;2023-04-08T01:31:28;101649.06;;;11.20;61.82
7264;BME280;3673;52.480;13.348;2023-04-08T01:33:57;101655.88;;;11.08;62.71
7264;BME280;3673;52.480;13.348;2023-04-08T01:36:26;101650.69;;;11.11;62.25
7264;BME280;3673;52.480;13.348;2023-04-08T01:38:54;101653.41;;;11.18;62.39
7264;BME280;3673;52.480;13.348;2023-04-08T01:41:21;101658.53;;;11.09;62.42
7264;BME280;3673;52.480;13.348;2023-04-08T01:43:50;101647.38;;;11.25;61.95
7264;BME280;3673;52.480;13.348;2023-04-08T01:46:17;101643.19;;;11.43;61.82
7264;BME280;3673;52.480;13.348;2023-04-08T01:48:46;101656.09;;;11.24;61.81
7264;BME280;3673;52.480;13.348;2023-04-08T01:51:14;101650.00;;;11.25;61.67
7264;BME280;3673;52.480;13.348;2023-04-08T01:53:42;101661.28;;;11.20;61.83
7264;BME280;3673;52.480;13.348;2023-04-08T01:56:11;101664.09;;;11.36;61.55
7264;BME280;3673;52.480;13.348;2023-04-08T01:58:41;101666.34;;;11.03;62.53
7264;BME280;3673;52.480;13.348;2023-04-08T02:01:14;101662.00;;;11.07;62.44
7264;BME280;3673;52.480;13.348;2023-04-08T02:03:44;101661.94;;;11.01;62.76
7264;BME280;3673;52.480;13.348;2023-04-08T02:06:11;101650.78;;;11.18;62.19
7264;BME280;3673;52.480;13.348;2023-04-08T02:08:38;101651.69;;;11.22;61.92
7264;BME280;3673;52.480;13.348;2023-04-08T02:11:05;101647.47;;;11.33;61.39
7264;BME280;3673;52.480;13.348;2023-04-08T02:13:32;101650.91;;;11.29;61.64
7264;BME280;3673;52.480;13.348;2023-04-08T02:16:05;101654.22;;;11.14;62.12
7264;BME280;3673;52.480;13.348;2023-04-08T02:18:38;101667.34;;;11.16;62.51
7264;BME280;3673;52.480;13.348;2023-04-08T02:21:11;101663.81;;;11.12;62.12
7264;BME280;3673;52.480;13.348;2023-04-08T02:23:40;101681.44;;;11.24;62.23
7264;BME280;3673;52.480;13.348;2023-04-08T02:26:09;101676.19;;;11.24;61.92
7264;BME280;3673;52.480;13.348;2023-04-08T02:28:39;101687.28;;;11.03;62.48
7264;BME280;3673;52.480;13.348;2023-04-08T02:31:09;101684.31;;;10.77;63.51
7264;BME280;3673;52.480;13.348;2023-04-08T02:33:39;101671.53;;;11.00;63.14
7264;BME280;3673;52.480;13.348;2023-04-08T02:36:07;101674.97;;;10.98;62.76
7264;BME280;3673;52.480;13.348;2023-04-08T02:38:35;101674.38;;;11.21;62.35
7264;BME280;3673;52.480;13.348;2023-04-08T02:41:02;101686.19;;;10.88;62.96
7264;BME280;3673;52.480;13.348;2023-04-08T02:43:29;101679.56;;;11.15;62.63
7264;BME280;3673;52.480;13.348;2023-04-08T02:45:58;101685.66;;;11.14;62.41
7264;BME280;3673;52.480;13.348;2023-04-08T02:48:27;101691.16;;;11.35;61.91
7264;BME280;3673;52.480;13.348;2023-04-08T02:50:55;101695.22;;;11.11;62.44
7264;BME280;3673;52.480;13.348;2023-04-08T02:53:23;101689.63;;;10.82;63.51
7264;BME280;3673;52.480;13.348;2023-04-08T02:55:50;101694.03;;;10.88;63.10
7264;BME280;3673;52.480;13.348;2023-04-08T02:58:17;101694.28;;;11.06;62.93
7264;BME280;3673;52.480;13.348;2023-04-08T03:00:43;101686.69;;;11.28;62.29
7264;BME280;3673;52.480;13.348;2023-04-08T03:03:10;101700.72;;;11.30;62.05
7264;BME280;3673;52.480;13.348;2023-04-08T03:05:37;101698.94;;;11.29;62.29
7264;BME280;3673;52.480;13.348;2023-04-08T03:08:05;101702.50;;;11.37;61.79
7264;BME280;3673;52.480;13.348;2023-04-08T03:10:32;101697.94;;;11.18;62.74
7264;BME280;3673;52.480;13.348;2023-04-08T03:12:59;101700.53;;;11.17;62.45
7264;BME280;3673;52.480;13.348;2023-04-08T03:15:26;101705.75;;;11.15;62.47
7264;BME280;3673;52.480;13.348;2023-04-08T03:17:53;101702.22;;;11.12;62.69
7264;BME280;3673;52.480;13.348;2023-04-08T03:20:20;101704.81;;;11.12;62.53
7264;BME280;3673;52.480;13.348;2023-04-08T03:22:47;101709.41;;;11.29;62.29
7264;BME280;3673;52.480;13.348;2023-04-08T03:25:15;101713.72;;;11.24;61.98
7264;BME280;3673;52.480;13.348;2023-04-08T03:27:42;101717.19;;;11.20;62.58
7264;BME280;3673;52.480;13.348;2023-04-08T03:30:09;101713.63;;;11.17;62.72
7264;BME280;3673;52.480;13.348;2023-04-08T03:32:36;101714.38;;;11.08;62.74
7264;BME280;3673;52.480;13.348;2023-04-08T03:35:04;101718.13;;;11.27;62.62
7264;BME280;3673;52.480;13.348;2023-04-08T03:37:31;101710.88;;;11.06;63.06
7264;BME280;3673;52.480;13.348;2023-04-08T03:39:57;101712.72;;;11.15;62.94
7264;BME280;3673;52.480;13.348;2023-04-08T03:42:25;101723.22;;;11.18;62.85
7264;BME280;3673;52.480;13.348;2023-04-08T03:44:52;101725.00;;;11.17;63.02
7264;BME280;3673;52.480;13.348;2023-04-08T03:47:19;101722.59;;;11.35;62.72
7264;BME280;3673;52.480;13.348;2023-04-08T03:49:46;101734.69;;;11.27;62.45
7264;BME280;3673;52.480;13.348;2023-04-08T03:52:12;101726.97;;;11.38;62.21
7264;BME280;3673;52.480;13.348;2023-04-08T03:54:39;101732.59;;;10.99;63.80
7264;BME280;3673;52.480;13.348;2023-04-08T03:57:06;101727.72;;;11.26;63.21
7264;BME280;3673;52.480;13.348;2023-04-08T03:59:34;101730.88;;;11.00;63.70
7264;BME280;3673;52.480;13.348;2023-04-08T04:02:01;101727.50;;;11.10;63.16
7264;BME280;3673;52.480;13.348;2023-04-08T04:04:28;101735.63;;;11.29;62.63
7264;BME280;3673;52.480;13.348;2023-04-08T04:06:55;101736.50;;;11.30;62.73
7264;BME280;3673;52.480;13.348;2023-04-08T04:09:22;101745.16;;;11.24;62.50
7264;BME280;3673;52.480;13.348;2023-04-08T04:11:49;101741.75;;;11.31;62.70
7264;BME280;3673;52.480;13.348;2023-04-08T04:14:15;101754.69;;;11.19;62.91
7264;BME280;3673;52.480;13.348;2023-04-08T04:16:44;101748.50;;;11.14;62.82
7264;BME280;3673;52.480;13.348;2023-04-08T04:19:10;101748.81;;;11.37;62.64
7264;BME280;3673;52.480;13.348;2023-04-08T04:21:37;101741.00;;;11.42;62.52
7264;BME280;3673;52.480;13.348;2023-04-08T04:24:04;101745.47;;;11.52;62.26
7264;BME280;3673;52.480;13.348;2023-04-08T04:26:32;101743.47;;;11.31;62.68
7264;BME280;3673;52.480;13.348;2023-04-08T04:28:58;101752.25;;;11.33;62.70
7264;BME280;3673;52.480;13.348;2023-04-08T04:31:25;101760.81;;;11.21;62.70
7264;BME280;3673;52.480;13.348;2023-04-08T04:33:54;101756.06;;;10.92;63.53
7264;BME280;3673;52.480;13.348;2023-04-08T04:36:20;101765.88;;;11.06;63.38
7264;BME280;3673;52.480;13.348;2023-04-08T04:38:48;101770.38;;;11.18;63.15
7264;BME280;3673;52.480;13.348;2023-04-08T04:41:15;101772.38;;;11.34;62.52
7264;BME280;3673;52.480;13.348;2023-04-08T04:43:42;101776.66;;;11.29;62.78
7264;BME280;3673;52.480;13.348;2023-04-08T04:46:09;101767.94;;;11.30;62.39
7264;BME280;3673;52.480;13.348;2023-04-08T04:48:36;101782.00;;;11.38;62.43
7264;BME280;3673;52.480;13.348;2023-04-08T04:51:04;101777.75;;;11.48;62.26
7264;BME280;3673;52.480;13.348;2023-04-08T04:53:32;101780.41;;;11.49;62.00
7264;BME280;3673;52.480;13.348;2023-04-08T04:55:58;101790.59;;;11.28;62.75
7264;BME280;3673;52.480;13.348;2023-04-08T04:58:26;101786.13;;;11.21;62.70
7264;BME280;3673;52.480;13.348;2023-04-08T05:00:53;101785.94;;;11.06;63.21
7264;BME280;3673;52.480;13.348;2023-04-08T05:03:20;101793.13;;;11.22;62.96
7264;BME280;3673;52.480;13.348;2023-04-08T05:05:50;101795.13;;;11.41;62.57
7264;BME280;3673;52.480;13.348;2023-04-08T05:08:19;101795.84;;;11.28;62.47
7264;BME280;3673;52.480;13.348;2023-04-08T05:10:46;101802.81;;;11.26;62.79
7264;BME280;3673;52.480;13.348;2023-04-08T05:13:14;101806.13;;;11.13;63.25
7264;BME280;3673;52.480;13.348;2023-04-08T05:15:41;101801.84;;;11.21;62.77
7264;BME280;3673;52.480;13.348;2023-04-08T05:18:08;101801.34;;;11.49;62.21
7264;BME280;3673;52.480;13.348;2023-04-08T05:20:35;101807.09;;;11.21;62.58
7264;BME280;3673;52.480;13.348;2023-04-08T05:23:02;101807.03;;;11.16;62.64
7264;BME280;3673;52.480;13.348;2023-04-08T05:25:30;101813.81;;;11.67;61.74
7264;BME280;3673;52.480;13.348;2023-04-08T05:27:57;101813.47;;;11.40;62.27
7264;BME280;3673;52.480;13.348;2023-04-08T05:30:23;101816.22;;;11.52;62.00
7264;BME280;3673;52.480;13.348;2023-04-08T05:32:50;101817.19;;;11.57;62.05
7264;BME280;3673;52.480;13.348;2023-04-08T05:35:17;101814.59;;;11.61;61.85
7264;BME280;3673;52.480;13.348;2023-04-08T05:37:44;101813.50;;;11.43;61.74
7264;BME280;3673;52.480;13.348;2023-04-08T05:40:11;101815.31;;;11.47;61.53
7264;BME280;3673;52.480;13.348;2023-04-08T05:42:39;101829.19;;;11.40;62.13
7264;BME280;3673;52.480;13.348;2023-04-08T05:45:07;101831.09;;;11.54;62.01
7264;BME280;3673;52.480;13.348;2023-04-08T05:47:34;101844.34;;;11.63;62.09
7264;BME280;3673;52.480;13.348;2023-04-08T05:50:01;101848.94;;;11.79;61.67
7264;BME280;3673;52.480;13.348;2023-04-08T05:52:28;101847.22;;;11.81;61.12
7264;BME280;3673;52.480;13.348;2023-04-08T05:54:54;101858.69;;;11.90;60.78
7264;BME280;3673;52.480;13.348;2023-04-08T05:57:21;101846.22;;;11.70;61.30
7264;BME280;3673;52.480;13.348;2023-04-08T05:59:49;101847.13;;;11.75;61.42
7264;BME280;3673;52.480;13.348;2023-04-08T06:02:17;101845.38;;;11.74;61.38
7264;BME280;3673;52.480;13.348;2023-04-08T06:04:44;101851.06;;;11.45;62.33
7264;BME280;3673;52.480;13.348;2023-04-08T06:07:11;101857.16;;;11.42;62.29
7264;BME280;3673;52.480;13.348;2023-04-08T06:09:38;101847.19;;;11.78;61.48
7264;BME280;3673;52.480;13.348;2023-04-08T06:12:05;101844.34;;;11.63;61.47
7264;BME280;3673;52.480;13.348;2023-04-08T06:14:31;101849.53;;;11.59;62.14
7264;BME280;3673;52.480;13.348;2023-04-08T06:16:59;101855.97;;;11.82;61.34
7264;BME280;3673;52.480;13.348;2023-04-08T06:19:26;101858.56;;;11.77;61.55
7264;BME280;3673;52.480;13.348;2023-04-08T06:21:53;101863.78;;;11.79;61.20
7264;BME280;3673;52.480;13.348;2023-04-08T06:24:24;101858.31;;;11.61;62.12
7264;BME280;3673;52.480;13.348;2023-04-08T06:26:51;101854.88;;;11.68;61.79
7264;BME280;3673;52.480;13.348;2023-04-08T06:29:18;101855.84;;;11.73;61.68
7264;BME280;3673;52.480;13.348;2023-04-08T06:31:45;101868.34;;;11.94;61.53
7264;BME280;3673;52.480;13.348;2023-04-08T06:34:13;101870.19;;;12.01;61.06
7264;BME280;3673;52.480;13.348;2023-04-08T06:36:40;101873.56;;;11.92;61.37
7264;BME280;3673;52.480;13.348;2023-04-08T06:39:07;101876.22;;;11.95;60.77
7264;BME280;3673;52.480;13.348;2023-04-08T06:41:34;101886.72;;;11.95;60.76
7264;BME280;3673;52.480;13.348;2023-04-08T06:44:01;101878.97;;;12.06;60.96
7264;BME280;3673;52.480;13.348;2023-04-08T06:46:27;101892.88;;;11.99;61.31
7264;BME280;3673;52.480;13.348;2023-04-08T06:48:54;101894.72;;;12.06;61.18
7264;BME280;3673;52.480;13.348;2023-04-08T06:51:22;101899.78;;;11.91;61.30
7264;BME280;3673;52.480;13.348;2023-04-08T06:53:49;101913.94;;;12.06;60.90
7264;BME280;3673;52.480;13.348;2023-04-08T06:56:15;101908.69;;;12.03;61.13
7264;BME280;3673;52.480;13.348;2023-04-08T06:58:42;101910.25;;;11.89;61.44
7264;BME280;3673;52.480;13.348;2023-04-08T07:01:09;101916.94;;;11.69;61.86
7264;BME280;3673;52.480;13.348;2023-04-08T07:03:35;101914.81;;;12.05;60.84
7264;BME280;3673;52.480;13.348;2023-04-08T07:06:03;101922.59;;;11.99;61.31
7264;BME280;3673;52.480;13.348;2023-04-08T07:08:31;101921.72;;;11.97;61.40
7264;BME280;3673;52.480;13.348;2023-04-08T07:10:58;101918.22;;;11.97;61.25
7264;BME280;3673;52.480;13.348;2023-04-08T07:13:24;101922.75;;;12.10;60.91
7264;BME280;3673;52.480;13.348;2023-04-08T07:15:51;101915.66;;;12.03;61.08
7264;BME280;3673;52.480;13.348;2023-04-08T07:18:18;101920.97;;;12.09;60.90
7264;BME280;3673;52.480;13.348;2023-04-08T07:20:49;101917.59;;;12.19;60.67
7264;BME280;3673;52.480;13.348;2023-04-08T07:23:18;101921.16;;;12.25;60.20
7264;BME280;3673;52.480;13.348;2023-04-08T07:25:47;101934.91;;;12.05;60.76
7264;BME280;3673;52.480;13.348;2023-04-08T07:28:14;101930.81;;;12.26;59.91
7264;BME280;3673;52.480;13.348;2023-04-08T07:30:40;101938.81;;;12.38;60.19
7264;BME280;3673;52.480;13.348;2023-04-08T07:33:07;101936.31;;;12.51;59.37
7264;BME280;3673;52.480;13.348;2023-04-08T07:35:34;101937.91;;;12.36;59.80
7264;BME280;3673;52.480;13.348;2023-04-08T07:38:00;101942.94;;;12.17;60.38
7264;BME280;3673;52.480;13.348;2023-04-08T07:40:27;101944.84;;;12.30;60.19
7264;BME280;3673;52.480;13.348;2023-04-08T07:42:55;101948.56;;;12.52;59.47
7264;BME280;3673;52.480;13.348;2023-04-08T07:45:22;101954.91;;;12.72;58.84
7264;BME280;3673;52.480;13.348;2023-04-08T07:47:49;101952.16;;;12.60;59.43
7264;BME280;3673;52.480;13.348;2023-04-08T07:50:16;101947.81;;;12.65;59.08
7264;BME280;3673;52.480;13.348;2023-04-08T07:52:43;101957.25;;;12.46;59.78
7264;BME280;3673;52.480;13.348;2023-04-08T07:55:09;101954.72;;;12.54;59.89
7264;BME280;3673;52.480;13.348;2023-04-08T07:57:36;101956.66;;;12.73;59.03
7264;BME280;3673;52.480;13.348;2023-04-08T08:00:06;101963.66;;;12.71;59.35
7264;BME280;3673;52.480;13.348;2023-04-08T08:02:33;101960.34;;;12.90;59.22
7264;BME280;3673;52.480;13.348;2023-04-08T08:05:00;101963.75;;;12.80;58.99
7264;BME280;3673;52.480;13.348;2023-04-08T08:07:28;101948.13;;;12.94;58.49
7264;BME280;3673;52.480;13.348;2023-04-08T08:09:55;101964.84;;;13.06;58.18
7264;BME280;3673;52.480;13.348;2023-04-08T08:12:21;101961.22;;;12.90;58.29
7264;BME280;3673;52.480;13.348;2023-04-08T08:14:48;101967.31;;;12.86;58.72
7264;BME280;3673;52.480;13.348;2023-04-08T08:17:17;101962.16;;;12.99;58.33
7264;BME280;3673;52.480;13.348;2023-04-08T08:19:43;101968.44;;;13.14;58.29
7264;BME280;3673;52.480;13.348;2023-04-08T08:22:10;101961.38;;;13.07;58.09
7264;BME280;3673;52.480;13.348;2023-04-08T08:24:37;101960.78;;;13.45;57.35
7264;BME280;3673;52.480;13.348;2023-04-08T08:27:04;101962.44;;;13.27;57.50
7264;BME280;3673;52.480;13.348;2023-04-08T08:29:31;101970.38;;;13.33;57.55
7264;BME280;3673;52.480;13.348;2023-04-08T08:31:58;101968.63;;;13.35;57.38
7264;BME280;3673;52.480;13.348;2023-04-08T08:34:26;101964.06;;;13.10;58.16
7264;BME280;3673;52.480;13.348;2023-04-08T08:36:52;101976.44;;;13.26;57.62
7264;BME280;3673;52.480;13.348;2023-04-08T08:39:19;101973.75;;;13.19;57.57
7264;BME280;3673;52.480;13.348;2023-04-08T08:41:46;101970.09;;;13.03;57.72
7264;BME280;3673;52.480;13.348;2023-04-08T08:44:13;101991.06;;;13.02;58.42
7264;BME280;3673;52.480;13.348;2023-04-08T08:46:43;101990.31;;;13.12;57.92
7264;BME280;3673;52.480;13.348;2023-04-08T08:49:11;101981.38;;;12.95;58.40
7264;BME280;3673;52.480;13.348;2023-04-08T08:51:40;101993.75;;;13.06;58.15
7264;BME280;3673;52.480;13.348;2023-04-08T08:54:07;101991.06;;;12.97;57.90
7264;BME280;3673;52.480;13.348;2023-04-08T08:56:34;101987.84;;;13.31;57.74
7264;BME280;3673;52.480;13.348;2023-04-08T08:59:01;101985.97;;;13.15;57.85
7264;BME280;3673;52.480;13.348;2023-04-08T09:01:32;101987.94;;;13.42;57.09
7264;BME280;3673;52.480;13.348;2023-04-08T09:04:14;101995.34;;;14.02;56.06
7264;BME280;3673;52.480;13.348;2023-04-08T09:06:43;102001.44;;;13.90;55.21
7264;BME280;3673;52.480;13.348;2023-04-08T09:09:10;101998.75;;;13.86;55.33
7264;BME280;3673;52.480;13.348;2023-04-08T09:11:37;101997.00;;;13.83;55.33
7264;BME280;3673;52.480;13.348;2023-04-08T09:14:15;101999.66;;;13.91;55.00
7264;BME280;3673;52.480;13.348;2023-04-08T09:16:42;102004.88;;;13.80;55.33
7264;BME280;3673;52.480;13.348;2023-04-08T09:19:10;102007.41;;;13.64;55.98
7264;BME280;3673;52.480;13.348;2023-04-08T09:21:38;102012.72;;;13.73;56.09
7264;BME280;3673;52.480;13.348;2023-04-08T09:24:07;102017.91;;;13.61;56.16
7264;BME280;3673;52.480;13.348;2023-04-08T09:26:36;102013.66;;;13.84;55.83
7264;BME280;3673;52.480;13.348;2023-04-08T09:29:04;102018.84;;;13.73;55.97
7264;BME280;3673;52.480;13.348;2023-04-08T09:31:33;102020.53;;;13.65;56.40
7264;BME280;3673;52.480;13.348;2023-04-08T09:34:09;102023.25;;;13.76;56.20
7264;BME280;3673;52.480;13.348;2023-04-08T09:36:37;102027.75;;;13.90;55.89
7264;BME280;3673;52.480;13.348;2023-04-08T09:39:04;102018.94;;;13.88;55.62
7264;BME280;3673;52.480;13.348;2023-04-08T09:41:36;102024.19;;;13.85;55.46
7264;BME280;3673;52.480;13.348;2023-04-08T09:44:05;102033.00;;;13.87;55.41
7264;BME280;3673;52.480;13.348;2023-04-08T09:46:38;102032.03;;;13.78;55.15
7264;BME280;3673;52.480;13.348;2023-04-08T09:49:11;102033.03;;;14.01;54.60
7264;BME280;3673;52.480;13.348;2023-04-08T09:51:44;102033.00;;;13.87;55.28
7264;BME280;3673;52.480;13.348;2023-04-08T09:54:14;102035.72;;;14.09;54.69
7264;BME280;3673;52.480;13.348;2023-04-08T09:57:02;102028.81;;;14.32;53.53
7264;BME280;3673;52.480;13.348;2023-04-08T09:59:33;102035.06;;;14.46;53.80
7264;BME280;3673;52.480;13.348;2023-04-08T10:02:08;102035.81;;;14.27;53.97
7264;BME280;3673;52.480;13.348;2023-04-08T10:04:40;102038.44;;;14.28;54.12
7264;BME280;3673;52.480;13.348;2023-04-08T10:07:09;102031.56;;;14.47;53.80
7264;BME280;3673;52.480;13.348;2023-04-08T10:09:36;102033.34;;;14.59;53.62
7264;BME280;3673;52.480;13.348;2023-04-08T10:12:07;102036.13;;;15.25;51.42
7264;BME280;3673;52.480;13.348;2023-04-08T10:14:34;102040.53;;;15.46;50.54
7264;BME280;3673;52.480;13.348;2023-04-08T10:17:23;102028.22;;;15.56;49.57
7264;BME280;3673;52.480;13.348;2023-04-08T10:19:52;102035.25;;;15.38;49.85
7264;BME280;3673;52.480;13.348;2023-04-08T10:22:45;102042.28;;;15.29;50.47
7264;BME280;3673;52.480;13.348;2023-04-08T10:25:29;102038.75;;;15.19;50.94
7264;BME280;3673;52.480;13.348;2023-04-08T10:27:59;102042.22;;;15.02;50.83
7264;BME280;3673;52.480;13.348;2023-04-08T10:30:42;102043.13;;;15.16;51.26
7264;BME280;3673;52.480;13.348;2023-04-08T10:33:11;102040.53;;;15.72;49.54
7264;BME280;3673;52.480;13.348;2023-04-08T10:35:42;102032.66;;;15.64;49.37
7264;BME280;3673;52.480;13.348;2023-04-08T10:38:11;102029.06;;;15.92;49.35
7264;BME280;3673;52.480;13.348;2023-04-08T10:40:39;102028.19;;;15.93;48.26
7264;BME280;3673;52.480;13.348;2023-04-08T10:43:09;102033.50;;;15.53;49.55
7264;BME280;3673;52.480;13.348;2023-04-08T10:45:36;102040.31;;;16.46;49.83
7264;BME280;3673;52.480;13.348;2023-04-08T10:48:15;102042.06;;;16.50;48.12
7264;BME280;3673;52.480;13.348;2023-04-08T10:50:44;102035.78;;;16.80;47.44
7264;BME280;3673;52.480;13.348;2023-04-08T10:53:17;102030.97;;;17.36;46.16
7264;BME280;3673;52.480;13.348;2023-04-08T10:55:49;102031.34;;;16.86;45.87
7264;BME280;3673;52.480;13.348;2023-04-08T10:58:17;102039.38;;;16.65;46.69
7264;BME280;3673;52.480;13.348;2023-04-08T11:00:44;102052.28;;;17.15;46.19
7264;BME280;3673;52.480;13.348;2023-04-08T11:03:11;102034.56;;;17.31;45.40
7264;BME280;3673;52.480;13.348;2023-04-08T11:05:38;102030.63;;;16.49;45.85
7264;BME280;3673;52.480;13.348;2023-04-08T11:08:05;102039.22;;;16.94;46.41
7264;BME280;3673;52.480;13.348;2023-04-08T11:10:36;102031.22;;;17.08;45.35
7264;BME280;3673;52.480;13.348;2023-04-08T11:13:06;102041.03;;;16.90;45.96
7264;BME280;3673;52.480;13.348;2023-04-08T11:15:35;102038.41;;;16.83;45.50
7264;BME280;3673;52.480;13.348;2023-04-08T11:18:03;102041.78;;;17.08;45.69
7264;BME280;3673;52.480;13.348;2023-04-08T11:20:31;102045.28;;;17.10;44.93
7264;BME280;3673;52.480;13.348;2023-04-08T11:23:00;102046.31;;;16.89;45.04
7264;BME280;3673;52.480;13.348;2023-04-08T11:25:28;102034.03;;;16.80;45.84
7264;BME280;3673;52.480;13.348;2023-04-08T11:27:55;102045.34;;;17.04;45.28
7264;BME280;3673;52.480;13.348;2023-04-08T11:30:22;102039.03;;;17.20;44.03
7264;BME280;3673;52.480;13.348;2023-04-08T11:32:51;102032.25;;;16.82;45.44
7264;BME280;3673;52.480;13.348;2023-04-08T11:35:17;102046.31;;;16.86;45.02
7264;BME280;3673;52.480;13.348;2023-04-08T11:37:44;102042.03;;;16.62;45.83
7264;BME280;3673;52.480;13.348;2023-04-08T11:40:18;102045.56;;;16.64;45.36
7264;BME280;3673;52.480;13.348;2023-04-08T11:42:45;102049.13;;;16.57;45.43
7264;BME280;3673;52.480;13.348;2023-04-08T11:45:14;102045.50;;;16.75;45.56
7264;BME280;3673;52.480;13.348;2023-04-08T11:47:42;102046.38;;;16.80;44.60
7264;BME280;3673;52.480;13.348;2023-04-08T11:50:11;102044.38;;;17.17;44.99
7264;BME280;3673;52.480;13.348;2023-04-08T11:52:43;102041.41;;;17.51;44.08
7264;BME280;3673;52.480;13.348;2023-04-08T11:55:10;102034.41;;;17.50;44.14
7264;BME280;3673;52.480;13.348;2023-04-08T11:57:38;102035.13;;;17.69;42.56
7264;BME280;3673;52.480;13.348;2023-04-08T12:00:06;102033.16;;;17.89;42.01
7264;BME280;3673;52.480;13.348;2023-04-08T12:02:34;102041.44;;;17.58;42.42
7264;BME280;3673;52.480;13.348;2023-04-08T12:05:01;102039.72;;;18.31;41.77
7264;BME280;3673;52.480;13.348;2023-04-08T12:07:29;102038.53;;;18.58;41.34
7264;BME280;3673;52.480;13.348;2023-04-08T12:09:56;102034.41;;;18.36;41.32
7264;BME280;3673;52.480;13.348;2023-04-08T12:12:23;102036.06;;;18.44;41.41
7264;BME280;3673;52.480;13.348;2023-04-08T12:14:50;102033.66;;;18.23;41.90
7264;BME280;3673;52.480;13.348;2023-04-08T12:17:17;102034.13;;;17.84;41.65
7264;BME280;3673;52.480;13.348;2023-04-08T12:19:44;102035.47;;;18.20;41.81
7264;BME280;3673;52.480;13.348;2023-04-08T12:22:11;102032.31;;;17.86;42.48
7264;BME280;3673;52.480;13.348;2023-04-08T12:24:39;102032.16;;;17.98;41.95
7264;BME280;3673;52.480;13.348;2023-04-08T12:27:06;102024.41;;;17.84;41.14
7264;BME280;3673;52.480;13.348;2023-04-08T12:29:32;102043.19;;;17.54;41.64
7264;BME280;3673;52.480;13.348;2023-04-08T12:31:59;102046.97;;;17.23;42.29
7264;BME280;3673;52.480;13.348;2023-04-08T12:34:26;102046.97;;;17.24;42.77
7264;BME280;3673;52.480;13.348;2023-04-08T12:36:53;102037.84;;;17.63;44.75
7264;BME280;3673;52.480;13.348;2023-04-08T12:39:21;102046.00;;;17.31;42.03
7264;BME280;3673;52.480;13.348;2023-04-08T12:41:49;102039.19;;;17.00;42.33
7264;BME280;3673;52.480;13.348;2023-04-08T12:44:16;102043.69;;;16.86;43.03
7264;BME280;3673;52.480;13.348;2023-04-08T12:46:43;102032.03;;;17.16;42.41
7264;BME280;3673;52.480;13.348;2023-04-08T12:49:10;102036.34;;;17.27;42.05
7264;BME280;3673;52.480;13.348;2023-04-08T12:51:37;102042.47;;;17.34;42.21
7264;BME280;3673;52.480;13.348;2023-04-08T12:54:04;102027.38;;;17.46;41.15
7264;BME280;3673;52.480;13.348;2023-04-08T12:56:31;102029.97;;;17.49;41.10
7264;BME280;3673;52.480;13.348;2023-04-08T12:59:00;102033.59;;;17.38;40.91
7264;BME280;3673;52.480;13.348;2023-04-08T13:01:27;102038.09;;;17.28;40.77
7264;BME280;3673;52.480;13.348;2023-04-08T13:03:55;102026.88;;;17.98;39.86
7264;BME280;3673;52.480;13.348;2023-04-08T13:06:22;102027.00;;;19.75;36.38